sensor_id;sensor_type;location;lat;lon;timestamp;pressure;altitude;pressure_sealevel;temperature;humidity
24234;BME280;12365;43.554;1.388;2022-08-07T00:01:17;99838.38;;;30.59;31.76
24234;BME280;12365;43.554;1.388;2022-08-07T00:03:43;99852.03;;;30.53;31.80
24234;BME280;12365;43.554;1.388;2022-08-07T00:06:09;99855.81;;;30.48;31.40
24234;BME280;12365;43.554;1.388;2022-08-07T00:08:35;99848.88;;;30.40;31.81
24234;BME280;12365;43.554;1.388;2022-08-07T00:11:01;99852.69;;;30.33;31.70
24234;BME280;12365;43.554;1.388;2022-08-07T00:13:27;99852.09;;;30.23;31.88
24234;BME280;12365;43.554;1.388;2022-08-07T00:15:53;99846.97;;;30.14;31.99
24234;BME280;12365;43.554;1.388;2022-08-07T00:18:22;99849.88;;;30.08;32.46
24234;BME280;12365;43.554;1.388;2022-08-07T00:20:48;99847.47;;;29.99;32.61
24234;BME280;12365;43.554;1.388;2022-08-07T00:23:15;99842.22;;;29.94;32.78
24234;BME280;12365;43.554;1.388;2022-08-07T00:25:41;99841.44;;;29.91;32.53
24234;BME280;12365;43.554;1.388;2022-08-07T00:28:06;99829.94;;;29.86;32.63
24234;BME280;12365;43.554;1.388;2022-08-07T00:30:32;99829.19;;;29.80;32.82
24234;BME280;12365;43.554;1.388;2022-08-07T00:32:58;99819.53;;;29.73;33.21
24234;BME280;12365;43.554;1.388;2022-08-07T00:35:25;99819.72;;;29.67;32.98
24234;BME280;12365;43.554;1.388;2022-08-07T00:37:51;99826.97;;;29.64;33.20
24234;BME280;12365;43.554;1.388;2022-08-07T00:40:16;99828.94;;;29.57;33.59
24234;BME280;12365;43.554;1.388;2022-08-07T00:42:42;99831.91;;;29.48;33.71
24234;BME280;12365;43.554;1.388;2022-08-07T00:45:08;99823.88;;;29.46;33.37
24234;BME280;12365;43.554;1.388;2022-08-07T00:47:34;99819.59;;;29.39;33.99
24234;BME280;12365;43.554;1.388;2022-08-07T00:50:00;99828.75;;;29.33;33.75
24234;BME280;12365;43.554;1.388;2022-08-07T00:52:25;99825.25;;;29.30;34.09
24234;BME280;12365;43.554;1.388;2022-08-07T00:54:51;99821.88;;;29.22;34.13
24234;BME280;12365;43.554;1.388;2022-08-07T00:57:17;99825.53;;;29.19;34.38
24234;BME280;12365;43.554;1.388;2022-08-07T00:59:43;99829.34;;;29.12;34.24
24234;BME280;12365;43.554;1.388;2022-08-07T01:02:09;99830.34;;;29.08;34.51
24234;BME280;12365;43.554;1.388;2022-08-07T01:04:36;99823.38;;;28.99;34.81
24234;BME280;12365;43.554;1.388;2022-08-07T01:07:01;99819.81;;;28.99;34.80
24234;BME280;12365;43.554;1.388;2022-08-07T01:09:27;99819.91;;;28.94;34.95
24234;BME280;12365;43.554;1.388;2022-08-07T01:11:53;99823.56;;;28.91;35.12
24234;BME280;12365;43.554;1.388;2022-08-07T01:14:20;99823.56;;;28.91;35.23
24234;BME280;12365;43.554;1.388;2022-08-07T01:16:46;99823.66;;;28.88;35.19
24234;BME280;12365;43.554;1.388;2022-08-07T01:19:12;99822.00;;;28.84;35.32
24234;BME280;12365;43.554;1.388;2022-08-07T01:21:39;99824.72;;;28.83;35.05
24234;BME280;12365;43.554;1.388;2022-08-07T01:24:06;99819.44;;;28.80;35.47
24234;BME280;12365;43.554;1.388;2022-08-07T01:26:32;99819.53;;;28.75;35.56
24234;BME280;12365;43.554;1.388;2022-08-07T01:28:58;99814.34;;;28.69;35.53
24234;BME280;12365;43.554;1.388;2022-08-07T01:31:24;99821.56;;;28.67;35.66
24234;BME280;12365;43.554;1.388;2022-08-07T01:33:58;99821.78;;;28.58;35.93
24234;BME280;12365;43.554;1.388;2022-08-07T01:36:25;99817.38;;;28.53;35.96
24234;BME280;12365;43.554;1.388;2022-08-07T01:38:51;99821.16;;;28.46;36.00
24234;BME280;12365;43.554;1.388;2022-08-07T01:41:18;99820.25;;;28.46;36.07
24234;BME280;12365;43.554;1.388;2022-08-07T01:43:45;99814.06;;;28.42;36.09
24234;BME280;12365;43.554;1.388;2022-08-07T01:46:11;99810.63;;;28.37;36.22
24234;BME280;12365;43.554;1.388;2022-08-07T01:48:37;99812.53;;;28.32;36.39
24234;BME280;12365;43.554;1.388;2022-08-07T01:51:08;99809.88;;;28.30;36.37
24234;BME280;12365;43.554;1.388;2022-08-07T01:53:36;99811.78;;;28.25;36.52
24234;BME280;12365;43.554;1.388;2022-08-07T01:56:25;99810.00;;;28.26;36.55
24234;BME280;12365;43.554;1.388;2022-08-07T01:59:14;99812.75;;;28.23;36.52
24234;BME280;12365;43.554;1.388;2022-08-07T02:01:45;99810.19;;;28.18;36.56
24234;BME280;12365;43.554;1.388;2022-08-07T02:04:13;99812.91;;;28.17;36.79
24234;BME280;12365;43.554;1.388;2022-08-07T02:06:40;99808.56;;;28.11;36.73
24234;BME280;12365;43.554;1.388;2022-08-07T02:09:09;99815.75;;;28.09;36.79
24234;BME280;12365;43.554;1.388;2022-08-07T02:11:38;99805.97;;;28.06;36.90
24234;BME280;12365;43.554;1.388;2022-08-07T02:14:06;99815.00;;;28.02;37.01
24234;BME280;12365;43.554;1.388;2022-08-07T02:16:35;99808.78;;;28.02;36.84
24234;BME280;12365;43.554;1.388;2022-08-07T02:19:03;99808.78;;;28.00;37.20
24234;BME280;12365;43.554;1.388;2022-08-07T02:21:30;99808.94;;;27.94;37.13
24234;BME280;12365;43.554;1.388;2022-08-07T02:23:57;99804.56;;;27.90;37.29
24234;BME280;12365;43.554;1.388;2022-08-07T02:26:23;99802.81;;;27.89;37.34
24234;BME280;12365;43.554;1.388;2022-08-07T02:28:50;99811.81;;;27.85;37.38
24234;BME280;12365;43.554;1.388;2022-08-07T02:31:17;99808.34;;;27.80;37.26
24234;BME280;12365;43.554;1.388;2022-08-07T02:33:45;99814.72;;;27.74;37.64
24234;BME280;12365;43.554;1.388;2022-08-07T02:36:11;99812.13;;;27.70;37.37
24234;BME280;12365;43.554;1.388;2022-08-07T02:38:37;99816.72;;;27.64;37.52
24234;BME280;12365;43.554;1.388;2022-08-07T02:41:04;99805.25;;;27.58;37.61
24234;BME280;12365;43.554;1.388;2022-08-07T02:43:32;99809.78;;;27.54;37.58
24234;BME280;12365;43.554;1.388;2022-08-07T02:46:00;99805.41;;;27.50;37.90
24234;BME280;12365;43.554;1.388;2022-08-07T02:48:29;99801.03;;;27.46;37.82
24234;BME280;12365;43.554;1.388;2022-08-07T02:50:56;99793.13;;;27.40;38.07
24234;BME280;12365;43.554;1.388;2022-08-07T02:53:29;99794.88;;;27.41;38.13
24234;BME280;12365;43.554;1.388;2022-08-07T02:55:58;99795.91;;;27.35;38.04
24234;BME280;12365;43.554;1.388;2022-08-07T02:58:24;99807.63;;;27.30;38.17
24234;BME280;12365;43.554;1.388;2022-08-07T03:00:54;99804.97;;;27.28;38.17
24234;BME280;12365;43.554;1.388;2022-08-07T03:03:20;99807.78;;;27.20;38.33
24234;BME280;12365;43.554;1.388;2022-08-07T03:05:49;99798.94;;;27.15;38.56
24234;BME280;12365;43.554;1.388;2022-08-07T03:08:15;99801.69;;;27.12;38.59
24234;BME280;12365;43.554;1.388;2022-08-07T03:10:42;99804.31;;;27.14;38.50
24234;BME280;12365;43.554;1.388;2022-08-07T03:13:10;99807.88;;;27.14;38.64
24234;BME280;12365;43.554;1.388;2022-08-07T03:15:36;99801.69;;;27.11;38.60
24234;BME280;12365;43.554;1.388;2022-08-07T03:18:02;99808.00;;;27.08;38.41
24234;BME280;12365;43.554;1.388;2022-08-07T03:20:28;99805.44;;;27.02;38.67
24234;BME280;12365;43.554;1.388;2022-08-07T03:22:53;99801.13;;;26.95;38.69
24234;BME280;12365;43.554;1.388;2022-08-07T03:25:20;99803.84;;;26.92;38.86
24234;BME280;12365;43.554;1.388;2022-08-07T03:27:48;99800.34;;;26.88;38.97
24234;BME280;12365;43.554;1.388;2022-08-07T03:30:14;99802.19;;;26.85;38.81
24234;BME280;12365;43.554;1.388;2022-08-07T03:32:41;99797.81;;;26.80;38.94
24234;BME280;12365;43.554;1.388;2022-08-07T03:35:16;99809.38;;;26.81;38.93
24234;BME280;12365;43.554;1.388;2022-08-07T03:37:44;99805.91;;;26.77;38.97
24234;BME280;12365;43.554;1.388;2022-08-07T03:40:11;99818.50;;;26.71;39.08
24234;BME280;12365;43.554;1.388;2022-08-07T03:42:38;99821.22;;;26.69;39.21
24234;BME280;12365;43.554;1.388;2022-08-07T03:45:04;99818.63;;;26.65;39.18
24234;BME280;12365;43.554;1.388;2022-08-07T03:47:30;99823.13;;;26.61;39.34
24234;BME280;12365;43.554;1.388;2022-08-07T03:49:56;99828.59;;;26.53;39.45
24234;BME280;12365;43.554;1.388;2022-08-07T03:52:25;99823.34;;;26.46;39.54
24234;BME280;12365;43.554;1.388;2022-08-07T03:54:51;99833.22;;;26.44;39.32
24234;BME280;12365;43.554;1.388;2022-08-07T03:57:17;99826.94;;;26.45;39.34
24234;BME280;12365;43.554;1.388;2022-08-07T03:59:44;99843.09;;;26.38;39.46
24234;BME280;12365;43.554;1.388;2022-08-07T04:02:10;99832.47;;;26.34;39.87
24234;BME280;12365;43.554;1.388;2022-08-07T04:04:35;99836.03;;;26.34;39.83
24234;BME280;12365;43.554;1.388;2022-08-07T04:07:01;99835.16;;;26.32;39.74
24234;BME280;12365;43.554;1.388;2022-08-07T04:09:27;99844.13;;;26.30;39.57
24234;BME280;12365;43.554;1.388;2022-08-07T04:11:53;99847.72;;;26.29;39.55
24234;BME280;12365;43.554;1.388;2022-08-07T04:14:19;99845.97;;;26.25;40.07
24234;BME280;12365;43.554;1.388;2022-08-07T04:16:46;99847.84;;;26.21;40.14
24234;BME280;12365;43.554;1.388;2022-08-07T04:19:13;99847.00;;;26.16;39.82
24234;BME280;12365;43.554;1.388;2022-08-07T04:21:38;99844.34;;;26.13;40.16
24234;BME280;12365;43.554;1.388;2022-08-07T04:24:04;99848.88;;;26.08;39.81
24234;BME280;12365;43.554;1.388;2022-08-07T04:26:38;99854.34;;;26.02;39.99
24234;BME280;12365;43.554;1.388;2022-08-07T04:29:06;99853.47;;;26.00;40.26
24234;BME280;12365;43.554;1.388;2022-08-07T04:31:36;99853.53;;;25.97;40.39
24234;BME280;12365;43.554;1.388;2022-08-07T04:34:02;99858.88;;;25.95;40.06
24234;BME280;12365;43.554;1.388;2022-08-07T04:36:28;99852.69;;;25.91;40.51
24234;BME280;12365;43.554;1.388;2022-08-07T04:38:53;99858.06;;;25.90;40.57
24234;BME280;12365;43.554;1.388;2022-08-07T04:41:19;99863.50;;;25.85;40.35
24234;BME280;12365;43.554;1.388;2022-08-07T04:43:44;99859.03;;;25.81;40.44
24234;BME280;12365;43.554;1.388;2022-08-07T04:49:08;99864.44;;;25.78;40.51
24234;BME280;12365;43.554;1.388;2022-08-07T04:51:40;99861.81;;;25.75;40.70
24234;BME280;12365;43.554;1.388;2022-08-07T05:02:17;99879.69;;;25.68;40.66
24234;BME280;12365;43.554;1.388;2022-08-07T05:07:25;99872.56;;;25.67;40.91
24234;BME280;12365;43.554;1.388;2022-08-07T05:09:58;99863.66;;;25.67;41.09
24234;BME280;12365;43.554;1.388;2022-08-07T05:12:29;99876.16;;;25.68;40.68
24234;BME280;12365;43.554;1.388;2022-08-07T05:15:03;99878.78;;;25.69;40.65
24234;BME280;12365;43.554;1.388;2022-08-07T05:17:43;99891.22;;;25.73;41.02
24234;BME280;12365;43.554;1.388;2022-08-07T05:20:12;99886.72;;;25.77;40.69
24234;BME280;12365;43.554;1.388;2022-08-07T05:22:40;99891.13;;;25.80;41.00
24234;BME280;12365;43.554;1.388;2022-08-07T05:25:09;99891.13;;;25.81;40.71
24234;BME280;12365;43.554;1.388;2022-08-07T05:27:37;99893.75;;;25.87;41.00
24234;BME280;12365;43.554;1.388;2022-08-07T05:30:04;99894.56;;;25.94;40.49
24234;BME280;12365;43.554;1.388;2022-08-07T05:32:30;99898.06;;;25.99;40.56
24234;BME280;12365;43.554;1.388;2022-08-07T05:34:57;99897.13;;;26.02;40.70
24234;BME280;12365;43.554;1.388;2022-08-07T05:37:23;99905.06;;;26.08;40.73
24234;BME280;12365;43.554;1.388;2022-08-07T05:39:50;99913.06;;;26.11;40.70
24234;BME280;12365;43.554;1.388;2022-08-07T05:42:16;99905.81;;;26.19;40.62
24234;BME280;12365;43.554;1.388;2022-08-07T05:44:41;99914.63;;;26.27;40.53
24234;BME280;12365;43.554;1.388;2022-08-07T05:47:08;99923.41;;;26.35;40.23
24234;BME280;12365;43.554;1.388;2022-08-07T05:49:33;99918.03;;;26.38;40.32
24234;BME280;12365;43.554;1.388;2022-08-07T05:51:59;99923.34;;;26.42;40.11
24234;BME280;12365;43.554;1.388;2022-08-07T05:54:24;99928.63;;;26.45;40.11
24234;BME280;12365;43.554;1.388;2022-08-07T05:56:51;99932.13;;;26.50;39.87
24234;BME280;12365;43.554;1.388;2022-08-07T05:59:19;99923.19;;;26.54;39.65
24234;BME280;12365;43.554;1.388;2022-08-07T06:01:46;99928.38;;;26.63;39.76
24234;BME280;12365;43.554;1.388;2022-08-07T06:04:14;99930.94;;;26.72;39.49
24234;BME280;12365;43.554;1.388;2022-08-07T06:06:41;99936.97;;;26.84;39.37
24234;BME280;12365;43.554;1.388;2022-08-07T06:09:07;99922.59;;;26.91;39.42
24234;BME280;12365;43.554;1.388;2022-08-07T06:11:33;99934.91;;;27.01;39.13
24234;BME280;12365;43.554;1.388;2022-08-07T06:13:59;99927.63;;;27.09;38.87
24234;BME280;12365;43.554;1.388;2022-08-07T06:16:27;99930.22;;;27.15;38.80
24234;BME280;12365;43.554;1.388;2022-08-07T06:18:56;99931.84;;;27.26;38.61
24234;BME280;12365;43.554;1.388;2022-08-07T06:21:23;99940.69;;;27.32;38.42
24234;BME280;12365;43.554;1.388;2022-08-07T06:23:48;99937.84;;;27.40;38.45
24234;BME280;12365;43.554;1.388;2022-08-07T06:26:14;99942.94;;;27.55;38.29
24234;BME280;12365;43.554;1.388;2022-08-07T06:28:55;99938.31;;;27.63;38.34
24234;BME280;12365;43.554;1.388;2022-08-07T06:31:22;99942.56;;;27.74;38.21
24234;BME280;12365;43.554;1.388;2022-08-07T06:33:48;99948.53;;;27.90;37.75
24234;BME280;12365;43.554;1.388;2022-08-07T06:36:13;99944.75;;;28.00;37.72
24234;BME280;12365;43.554;1.388;2022-08-07T06:38:40;99941.81;;;28.10;37.36
24234;BME280;12365;43.554;1.388;2022-08-07T06:41:11;99939.00;;;28.18;37.36
24234;BME280;12365;43.554;1.388;2022-08-07T06:43:40;99938.88;;;28.23;37.20
24234;BME280;12365;43.554;1.388;2022-08-07T06:46:07;99944.06;;;28.32;37.04
24234;BME280;12365;43.554;1.388;2022-08-07T06:48:33;99937.84;;;28.30;36.80
24234;BME280;12365;43.554;1.388;2022-08-07T06:51:05;99941.31;;;28.35;36.76
24234;BME280;12365;43.554;1.388;2022-08-07T06:53:33;99946.66;;;28.35;36.70
24234;BME280;12365;43.554;1.388;2022-08-07T06:56:03;99934.91;;;28.41;36.66
24234;BME280;12365;43.554;1.388;2022-08-07T06:58:28;99940.09;;;28.51;36.42
24234;BME280;12365;43.554;1.388;2022-08-07T07:00:56;99946.16;;;28.60;36.48
24234;BME280;12365;43.554;1.388;2022-08-07T07:03:23;99938.72;;;28.71;36.37
24234;BME280;12365;43.554;1.388;2022-08-07T07:05:49;99943.94;;;28.77;36.14
24234;BME280;12365;43.554;1.388;2022-08-07T07:08:14;99941.06;;;28.85;35.95
24234;BME280;12365;43.554;1.388;2022-08-07T07:10:40;99937.16;;;28.98;35.83
24234;BME280;12365;43.554;1.388;2022-08-07T07:13:11;99946.75;;;29.10;36.04
24234;BME280;12365;43.554;1.388;2022-08-07T07:15:43;99943.06;;;29.14;35.69
24234;BME280;12365;43.554;1.388;2022-08-07T07:18:17;99942.09;;;29.16;35.73
24234;BME280;12365;43.554;1.388;2022-08-07T07:23:10;99940.97;;;29.25;35.48
24234;BME280;12365;43.554;1.388;2022-08-07T07:25:38;99941.78;;;29.29;35.19
24234;BME280;12365;43.554;1.388;2022-08-07T07:28:15;99941.53;;;29.38;35.28
24234;BME280;12365;43.554;1.388;2022-08-07T07:30:47;99937.59;;;29.51;34.94
24234;BME280;12365;43.554;1.388;2022-08-07T07:33:15;99942.84;;;29.56;35.16
24234;BME280;12365;43.554;1.388;2022-08-07T07:35:48;99940.72;;;29.69;34.95
24234;BME280;12365;43.554;1.388;2022-08-07T07:38:16;99938.81;;;29.72;35.14
24234;BME280;12365;43.554;1.388;2022-08-07T07:40:43;99940.25;;;29.86;35.10
24234;BME280;12365;43.554;1.388;2022-08-07T07:43:11;99938.13;;;29.97;34.49
24234;BME280;12365;43.554;1.388;2022-08-07T07:45:39;99934.47;;;29.99;34.65
24234;BME280;12365;43.554;1.388;2022-08-07T07:48:06;99935.03;;;30.11;34.54
24234;BME280;12365;43.554;1.388;2022-08-07T07:50:31;99945.31;;;30.28;34.51
24234;BME280;12365;43.554;1.388;2022-08-07T07:52:57;99939.66;;;30.37;34.36
24234;BME280;12365;43.554;1.388;2022-08-07T07:55:24;99944.81;;;30.44;34.19
24234;BME280;12365;43.554;1.388;2022-08-07T07:57:52;99940.91;;;30.55;33.84
24234;BME280;12365;43.554;1.388;2022-08-07T08:00:21;99935.25;;;30.62;33.68
24234;BME280;12365;43.554;1.388;2022-08-07T08:02:49;99937.34;;;30.81;33.49
24234;BME280;12365;43.554;1.388;2022-08-07T08:05:18;99942.34;;;30.95;33.20
24234;BME280;12365;43.554;1.388;2022-08-07T08:07:46;99935.75;;;31.03;33.01
24234;BME280;12365;43.554;1.388;2022-08-07T08:10:13;99934.66;;;31.09;33.00
24234;BME280;12365;43.554;1.388;2022-08-07T08:12:39;99936.16;;;31.18;32.92
24234;BME280;12365;43.554;1.388;2022-08-07T08:15:05;99931.38;;;31.26;32.68
24234;BME280;12365;43.554;1.388;2022-08-07T08:17:34;99935.38;;;31.41;32.55
24234;BME280;12365;43.554;1.388;2022-08-07T08:20:05;99930.66;;;31.47;32.44
24234;BME280;12365;43.554;1.388;2022-08-07T08:22:32;99926.78;;;31.55;32.57
24234;BME280;12365;43.554;1.388;2022-08-07T08:25:18;99927.34;;;31.64;31.94
24234;BME280;12365;43.554;1.388;2022-08-07T08:28:03;99925.59;;;31.63;31.90
24234;BME280;12365;43.554;1.388;2022-08-07T08:30:33;99934.16;;;31.74;31.69
24234;BME280;12365;43.554;1.388;2022-08-07T08:33:01;99920.38;;;31.82;31.80
24234;BME280;12365;43.554;1.388;2022-08-07T08:35:28;99920.03;;;31.91;31.79
24234;BME280;12365;43.554;1.388;2022-08-07T08:37:58;99921.50;;;32.02;31.56
24234;BME280;12365;43.554;1.388;2022-08-07T08:40:42;99918.44;;;32.11;31.33
24234;BME280;12365;43.554;1.388;2022-08-07T08:43:36;99914.38;;;32.23;31.36
24234;BME280;12365;43.554;1.388;2022-08-07T08:46:08;99916.63;;;32.33;31.13
24234;BME280;12365;43.554;1.388;2022-08-07T08:51:16;99928.16;;;32.62;31.07
24234;BME280;12365;43.554;1.388;2022-08-07T08:53:51;99915.94;;;32.74;31.03
24234;BME280;12365;43.554;1.388;2022-08-07T08:56:29;99908.19;;;32.87;30.85
24234;BME280;12365;43.554;1.388;2022-08-07T08:59:15;99905.94;;;32.98;30.62
24234;BME280;12365;43.554;1.388;2022-08-07T09:07:46;99900.44;;;33.21;30.31
24234;BME280;12365;43.554;1.388;2022-08-07T09:10:28;99900.28;;;33.24;29.96
24234;BME280;12365;43.554;1.388;2022-08-07T09:13:00;99902.41;;;33.38;30.07
24234;BME280;12365;43.554;1.388;2022-08-07T09:23:55;99904.75;;;33.87;29.60
24234;BME280;12365;43.554;1.388;2022-08-07T09:29:25;99907.88;;;34.17;29.11
24234;BME280;12365;43.554;1.388;2022-08-07T09:35:02;99903.44;;;34.16;29.15
24234;BME280;12365;43.554;1.388;2022-08-07T09:37:42;99903.84;;;34.26;28.93
24234;BME280;12365;43.554;1.388;2022-08-07T09:48:31;99898.75;;;34.56;28.16
24234;BME280;12365;43.554;1.388;2022-08-07T09:51:10;99900.25;;;34.63;28.02
24234;BME280;12365;43.554;1.388;2022-08-07T09:53:41;99901.53;;;34.73;27.80
24234;BME280;12365;43.554;1.388;2022-08-07T10:04:56;99890.19;;;35.36;26.71
24234;BME280;12365;43.554;1.388;2022-08-07T10:13:37;99887.25;;;35.24;26.54
24234;BME280;12365;43.554;1.388;2022-08-07T10:16:21;99885.50;;;35.23;26.36
24234;BME280;12365;43.554;1.388;2022-08-07T10:18:52;99877.50;;;35.20;26.30
24234;BME280;12365;43.554;1.388;2022-08-07T10:24:18;99884.13;;;35.49;26.13
24234;BME280;12365;43.554;1.388;2022-08-07T10:32:17;99874.06;;;35.51;25.97
24234;BME280;12365;43.554;1.388;2022-08-07T10:38:16;99864.94;;;35.69;25.38
24234;BME280;12365;43.554;1.388;2022-08-07T10:40:52;99864.09;;;35.85;25.22
24234;BME280;12365;43.554;1.388;2022-08-07T10:43:34;99855.31;;;35.95;25.15
24234;BME280;12365;43.554;1.388;2022-08-07T10:46:09;99855.06;;;36.00;24.99
24234;BME280;12365;43.554;1.388;2022-08-07T10:51:34;99853.47;;;36.29;24.84
24234;BME280;12365;43.554;1.388;2022-08-07T10:54:12;99842.84;;;36.24;24.78
24234;BME280;12365;43.554;1.388;2022-08-07T10:56:48;99839.53;;;36.19;24.39
24234;BME280;12365;43.554;1.388;2022-08-07T11:04:58;99837.13;;;36.45;24.15
24234;BME280;12365;43.554;1.388;2022-08-07T11:10:18;99822.75;;;36.43;24.02
24234;BME280;12365;43.554;1.388;2022-08-07T11:15:26;99811.50;;;36.65;23.85
24234;BME280;12365;43.554;1.388;2022-08-07T11:17:58;99810.19;;;36.86;23.54
24234;BME280;12365;43.554;1.388;2022-08-07T11:23:16;99810.16;;;37.02;23.25
24234;BME280;12365;43.554;1.388;2022-08-07T11:28:47;99801.88;;;37.20;23.03
24234;BME280;12365;43.554;1.388;2022-08-07T11:33:54;99800.09;;;37.19;23.02
24234;BME280;12365;43.554;1.388;2022-08-07T11:36:33;99796.59;;;37.17;22.75
24234;BME280;12365;43.554;1.388;2022-08-07T11:41:58;99791.84;;;37.20;22.57
24234;BME280;12365;43.554;1.388;2022-08-07T11:44:41;99802.56;;;37.38;22.68
24234;BME280;12365;43.554;1.388;2022-08-07T11:47:21;99787.75;;;37.42;22.15
24234;BME280;12365;43.554;1.388;2022-08-07T11:49:59;99790.97;;;37.48;22.39
24234;BME280;12365;43.554;1.388;2022-08-07T11:55:40;99777.09;;;37.53;22.15
24234;BME280;12365;43.554;1.388;2022-08-07T11:58:18;99780.59;;;37.55;22.08
24234;BME280;12365;43.554;1.388;2022-08-07T12:08:44;99763.75;;;37.63;21.85
24234;BME280;12365;43.554;1.388;2022-08-07T12:14:14;99770.75;;;37.81;21.48
24234;BME280;12365;43.554;1.388;2022-08-07T12:16:50;99764.72;;;37.76;21.31
24234;BME280;12365;43.554;1.388;2022-08-07T12:19:25;99755.91;;;37.85;21.41
24234;BME280;12365;43.554;1.388;2022-08-07T12:21:57;99752.59;;;38.09;21.08
24234;BME280;12365;43.554;1.388;2022-08-07T12:32:18;99732.03;;;38.45;20.64
24234;BME280;12365;43.554;1.388;2022-08-07T12:34:46;99724.94;;;38.55;20.44
24234;BME280;12365;43.554;1.388;2022-08-07T12:37:15;99725.97;;;38.67;20.22
24234;BME280;12365;43.554;1.388;2022-08-07T12:39:44;99714.81;;;38.57;20.11
24234;BME280;12365;43.554;1.388;2022-08-07T12:42:11;99723.53;;;38.49;20.26
24234;BME280;12365;43.554;1.388;2022-08-07T12:44:38;99730.88;;;38.34;19.98
24234;BME280;12365;43.554;1.388;2022-08-07T12:53:11;99709.13;;;38.20;20.09
24234;BME280;12365;43.554;1.388;2022-08-07T12:58:22;99697.38;;;38.32;20.04
24234;BME280;12365;43.554;1.388;2022-08-07T13:03:59;99687.00;;;38.37;19.62
24234;BME280;12365;43.554;1.388;2022-08-07T13:06:33;99690.63;;;38.38;19.61
24234;BME280;12365;43.554;1.388;2022-08-07T13:12:00;99682.22;;;38.41;19.70
24234;BME280;12365;43.554;1.388;2022-08-07T13:14:50;99675.69;;;38.44;19.57
24234;BME280;12365;43.554;1.388;2022-08-07T13:17:41;99682.47;;;38.51;19.20
24234;BME280;12365;43.554;1.388;2022-08-07T13:20:32;99675.41;;;38.61;19.28
24234;BME280;12365;43.554;1.388;2022-08-07T13:23:23;99672.66;;;38.61;18.98
24234;BME280;12365;43.554;1.388;2022-08-07T13:28:38;99672.34;;;38.53;18.89
24234;BME280;12365;43.554;1.388;2022-08-07T13:31:25;99673.75;;;38.58;18.71
24234;BME280;12365;43.554;1.388;2022-08-07T13:34:12;99659.56;;;38.66;18.79
24234;BME280;12365;43.554;1.388;2022-08-07T13:36:44;99662.97;;;38.70;18.48
24234;BME280;12365;43.554;1.388;2022-08-07T13:39:25;99661.22;;;38.69;18.48
24234;BME280;12365;43.554;1.388;2022-08-07T13:41:52;99661.00;;;38.85;18.31
24234;BME280;12365;43.554;1.388;2022-08-07T13:44:29;99668.78;;;38.91;18.42
24234;BME280;12365;43.554;1.388;2022-08-07T13:46:57;99664.09;;;38.93;18.09
24234;BME280;12365;43.554;1.388;2022-08-07T13:49:23;99650.00;;;38.99;17.97
24234;BME280;12365;43.554;1.388;2022-08-07T13:51:51;99661.66;;;39.01;18.08
24234;BME280;12365;43.554;1.388;2022-08-07T13:54:26;99660.69;;;39.02;18.10
24234;BME280;12365;43.554;1.388;2022-08-07T13:56:55;99654.47;;;39.13;18.07
24234;BME280;12365;43.554;1.388;2022-08-07T13:59:30;99660.84;;;39.24;17.67
24234;BME280;12365;43.554;1.388;2022-08-07T14:02:06;99653.00;;;39.33;17.63
24234;BME280;12365;43.554;1.388;2022-08-07T14:04:43;99644.38;;;39.39;17.87
24234;BME280;12365;43.554;1.388;2022-08-07T14:07:10;99654.09;;;39.43;17.65
24234;BME280;12365;43.554;1.388;2022-08-07T14:09:38;99652.56;;;39.39;17.77
24234;BME280;12365;43.554;1.388;2022-08-07T14:12:06;99650.38;;;39.31;17.54
24234;BME280;12365;43.554;1.388;2022-08-07T14:14:41;99650.16;;;39.21;17.62
24234;BME280;12365;43.554;1.388;2022-08-07T14:17:09;99648.44;;;39.20;17.43
24234;BME280;12365;43.554;1.388;2022-08-07T14:22:14;99647.75;;;39.30;17.24
24234;BME280;12365;43.554;1.388;2022-08-07T14:24:48;99642.50;;;39.27;17.34
24234;BME280;12365;43.554;1.388;2022-08-07T14:27:23;99640.78;;;39.26;17.28
24234;BME280;12365;43.554;1.388;2022-08-07T14:29:54;99637.56;;;39.32;17.27
24234;BME280;12365;43.554;1.388;2022-08-07T14:32:21;99628.97;;;39.38;17.14
24234;BME280;12365;43.554;1.388;2022-08-07T14:34:50;99634.44;;;39.38;17.08
24234;BME280;12365;43.554;1.388;2022-08-07T14:37:17;99626.56;;;39.33;17.12
24234;BME280;12365;43.554;1.388;2022-08-07T14:39:45;99623.91;;;39.32;17.47
24234;BME280;12365;43.554;1.388;2022-08-07T14:42:12;99623.72;;;39.35;16.89
24234;BME280;12365;43.554;1.388;2022-08-07T14:44:43;99623.72;;;39.35;17.13
24234;BME280;12365;43.554;1.388;2022-08-07T14:47:12;99624.25;;;39.40;17.14
24234;BME280;12365;43.554;1.388;2022-08-07T14:49:40;99616.13;;;39.51;17.25
24234;BME280;12365;43.554;1.388;2022-08-07T14:52:07;99616.19;;;39.62;17.11
24234;BME280;12365;43.554;1.388;2022-08-07T14:54:37;99615.09;;;39.65;16.92
24234;BME280;12365;43.554;1.388;2022-08-07T14:57:04;99618.72;;;39.65;16.76
24234;BME280;12365;43.554;1.388;2022-08-07T14:59:33;99619.28;;;39.58;16.90
24234;BME280;12365;43.554;1.388;2022-08-07T15:02:10;99611.50;;;39.40;16.90
24234;BME280;12365;43.554;1.388;2022-08-07T15:04:42;99616.28;;;39.37;16.92
24234;BME280;12365;43.554;1.388;2022-08-07T15:07:09;99616.19;;;39.38;16.99
24234;BME280;12365;43.554;1.388;2022-08-07T15:09:42;99611.69;;;39.37;16.79
24234;BME280;12365;43.554;1.388;2022-08-07T15:12:14;99610.59;;;39.40;17.04
24234;BME280;12365;43.554;1.388;2022-08-07T15:14:49;99606.94;;;39.52;16.87
24234;BME280;12365;43.554;1.388;2022-08-07T15:17:19;99610.28;;;39.69;16.96
24234;BME280;12365;43.554;1.388;2022-08-07T15:19:57;99608.41;;;39.69;16.82
24234;BME280;12365;43.554;1.388;2022-08-07T15:22:27;99609.47;;;39.55;16.40
24234;BME280;12365;43.554;1.388;2022-08-07T15:24:54;99607.66;;;39.43;16.52
24234;BME280;12365;43.554;1.388;2022-08-07T15:27:23;99597.84;;;39.28;16.56
24234;BME280;12365;43.554;1.388;2022-08-07T15:29:53;99597.16;;;39.37;16.75
24234;BME280;12365;43.554;1.388;2022-08-07T15:32:20;99593.06;;;39.55;16.51
24234;BME280;12365;43.554;1.388;2022-08-07T15:34:51;99585.44;;;39.48;16.53